Airfield :
LOGIN :

Register | Disclaimer

   EN    FR    IT 

 










Legend :    VFR   Marginal VFR   IFR   Intensive IFR   Very Intensive IFR
Visi :
Ceiling :
>= 8 km
>= 3000ft
5 to 8 km
1000 to 3000 ft
1500m to 5 km
500 to 1000 ft
800 to 1500m
200 to 500 ft
< 800m
< 200 ft
Symbols :   Thunderstorms  Fog  Heavy snow  Heavy precipitations  Wind > 20 kt
SIGMETs :     Misc.  Thunderstorms  Icing  Turbulence  Mountain Waves  Volcanic Ashes






- Airport Elevation : 16 ft
- IATA code : SDR


LEXJ - Santander Cantabria

CURRENT METAR :
  • 260200Z AUTO 00000KT 9000 NCD 06/04 Q1018

EXPIRED METARs :
  • 260130Z AUTO 28005KT 210V360 8000 NCD 07/05 Q1018
  • 260100Z AUTO 27002KT 9999 4200W NCD 07/06 Q1018
  • 260030Z AUTO 25001KT 7000 NCD 07/06 Q1018
  • 260000Z AUTO 00000KT 6000 NCD 07/06 Q1018
  • 252330Z AUTO 21003KT CAVOK 07/06 Q1018

TAF TAF LEXJ
Valid from the 25 at 21:00 until the 26 at 21:00 UTC


252000Z 2521/2621 20004KT 9999 SCT050 TX16/2615Z TN04/2607Z
PROB30
TEMPO 2613/2617 04010KT



MET'MAP, your aeronautical weather chart ! - Copyright ORBIFLY December 2007 - Disclaimer

ORBIFLY MET'MAP TEAM :

Programming & Development : Alexandra Zaïnal
Concept & original design : Baudouin d'Aumeries
Assistance for programming : Marc-Olivier Méhu
Technical & hardware support : Manuel Goepfert

Contact : metmap@orbifly.com




SOURCES & CREDITS :

   NOAA